Time;durP1;ratioP1;P1;durP2;ratioP2;P2;SDS_P1;SDS_P2;PMS_P1;PMS_P2;Temp;Humidity;BMP_temperature;BMP_pressure;BME280_temperature;BME280_humidity;BME280_pressure;Samples;Min_cycle;Max_cycle;Signal;HPM_P1;HPM_P2
2023/07/12 00:00:50;;;;;;;4.00;1.95;;;;;;;;;;6213838;23;20027;-63
2023/07/12 00:03:17;;;;;;;4.93;2.20;;;;;;;;;;6213844;23;20047;-63
2023/07/12 00:05:43;;;;;;;3.70;1.90;;;;;;;;;;6214364;23;20436;-63
2023/07/12 00:08:16;;;;;;;2.50;2.15;;;;;;;;;;6213955;23;20013;-63
2023/07/12 00:10:42;;;;;;;2.97;1.83;;;;;;;;;;6214463;23;20048;-63
2023/07/12 00:13:08;;;;;;;4.00;2.35;;;;;;;;;;6214352;23;20013;-63
2023/07/12 00:15:35;;;;;;;4.88;1.95;;;;;;;;;;6213898;23;20012;-63
2023/07/12 00:18:01;;;;;;;3.13;2.03;;;;;;;;;;6214443;23;20048;-63
2023/07/12 00:20:36;;;;;;;2.25;1.95;;;;;;;;;;6214398;23;20473;-63
2023/07/12 00:23:03;;;;;;;4.78;2.00;;;;;;;;;;6213728;23;20320;-63
2023/07/12 00:25:31;;;;;;;2.92;2.00;;;;;;;;;;6214103;23;20039;-63
2023/07/12 00:27:57;;;;;;;3.33;1.75;;;;;;;;;;6214147;23;20016;-63
2023/07/12 00:30:26;;;;;;;3.42;2.05;;;;;;;;;;6213733;23;20412;-63
2023/07/12 00:32:53;;;;;;;2.33;2.10;;;;;;;;;;6214056;23;20012;-63
2023/07/12 00:35:21;;;;;;;3.20;2.28;;;;;;;;;;6213794;23;20021;-63
2023/07/12 00:37:47;;;;;;;4.03;2.35;;;;;;;;;;6213598;23;20030;-63
2023/07/12 00:40:20;;;;;;;4.75;2.38;;;;;;;;;;6214089;23;20079;-63
2023/07/12 00:42:46;;;;;;;5.15;2.50;;;;;;;;;;6213465;23;20051;-63
2023/07/12 00:45:13;;;;;;;4.35;2.30;;;;;;;;;;6213372;23;20068;-63
2023/07/12 00:47:40;;;;;;;2.65;2.22;;;;;;;;;;6214154;23;20005;-63
2023/07/12 00:50:19;;;;;;;5.72;2.33;;;;;;;;;;6214128;23;20008;-63
2023/07/12 00:52:45;;;;;;;5.68;2.58;;;;;;;;;;6213243;23;20015;-63
2023/07/12 00:55:30;;;;;;;2.65;2.30;;;;;;;;;;6213990;23;20021;-63
2023/07/12 00:57:56;;;;;;;5.85;2.85;;;;;;;;;;6213625;23;20013;-63
2023/07/12 01:00:22;;;;;;;7.50;2.90;;;;;;;;;;6213418;23;20095;-63
2023/07/12 01:02:48;;;;;;;5.13;2.83;;;;;;;;;;6213875;23;20016;-63
2023/07/12 01:05:15;;;;;;;5.13;2.70;;;;;;;;;;6213895;23;20016;-63
2023/07/12 01:07:41;;;;;;;4.43;2.30;;;;;;;;;;6213477;23;20023;-63
2023/07/12 01:10:08;;;;;;;5.13;2.53;;;;;;;;;;6213903;23;20452;-63
2023/07/12 01:12:34;;;;;;;4.30;2.90;;;;;;;;;;6213717;23;20012;-63
2023/07/12 01:15:01;;;;;;;5.13;2.80;;;;;;;;;;6213494;23;20008;-63
2023/07/12 01:17:28;;;;;;;4.65;2.58;;;;;;;;;;6213967;23;20784;-63
2023/07/12 01:19:54;;;;;;;5.25;2.90;;;;;;;;;;6213829;23;20015;-63
2023/07/12 01:22:20;;;;;;;4.60;2.75;;;;;;;;;;6213153;23;20009;-63
2023/07/12 01:24:46;;;;;;;5.75;2.80;;;;;;;;;;6213649;23;20092;-63
2023/07/12 01:27:17;;;;;;;4.10;2.55;;;;;;;;;;6213612;23;20017;-63
2023/07/12 01:29:43;;;;;;;3.83;2.60;;;;;;;;;;6213058;23;20312;-63
2023/07/12 01:32:10;;;;;;;5.40;2.63;;;;;;;;;;6213321;23;20013;-63
2023/07/12 01:34:36;;;;;;;8.02;2.88;;;;;;;;;;6213489;23;20012;-63
2023/07/12 01:37:04;;;;;;;5.28;2.80;;;;;;;;;;6213005;23;20031;-63
2023/07/12 01:39:31;;;;;;;3.90;2.63;;;;;;;;;;6213633;23;20012;-63
2023/07/12 01:41:57;;;;;;;3.22;2.40;;;;;;;;;;6213686;23;20016;-63
2023/07/12 01:44:23;;;;;;;5.05;2.50;;;;;;;;;;6212823;23;20017;-63
2023/07/12 01:46:49;;;;;;;3.67;2.90;;;;;;;;;;6213307;23;20020;-63
2023/07/12 01:49:15;;;;;;;4.07;3.08;;;;;;;;;;6213433;23;20015;-63
2023/07/12 01:51:42;;;;;;;7.70;2.85;;;;;;;;;;6212778;23;20483;-63
2023/07/12 01:54:08;;;;;;;6.30;2.90;;;;;;;;;;6213542;23;20019;-63
2023/07/12 01:56:34;;;;;;;5.80;2.85;;;;;;;;;;6213429;23;20036;-63
2023/07/12 01:59:00;;;;;;;5.30;3.00;;;;;;;;;;6212785;23;20387;-63
2023/07/12 02:01:26;;;;;;;3.88;2.60;;;;;;;;;;6213226;23;20016;-63
2023/07/12 02:03:52;;;;;;;5.18;3.20;;;;;;;;;;6213161;23;20032;-63
2023/07/12 02:06:18;;;;;;;5.35;3.17;;;;;;;;;;6212821;23;20017;-63
2023/07/12 02:08:44;;;;;;;5.70;3.10;;;;;;;;;;6213315;23;20083;-63
2023/07/12 02:11:10;;;;;;;5.80;2.90;;;;;;;;;;6212755;23;20096;-63
2023/07/12 02:13:37;;;;;;;4.80;3.30;;;;;;;;;;6212370;23;20020;-63
2023/07/12 02:16:03;;;;;;;9.02;3.08;;;;;;;;;;6213348;23;20023;-63
2023/07/12 02:18:29;;;;;;;9.25;4.45;;;;;;;;;;6213311;23;20074;-63
2023/07/12 02:20:55;;;;;;;6.15;3.10;;;;;;;;;;6212811;23;20640;-63
2023/07/12 02:23:21;;;;;;;8.52;3.67;;;;;;;;;;6213053;23;20095;-63
2023/07/12 02:25:48;;;;;;;3.88;2.80;;;;;;;;;;6212824;23;20024;-63
2023/07/12 02:28:14;;;;;;;8.00;3.25;;;;;;;;;;6212742;23;20096;-63
2023/07/12 02:30:43;;;;;;;6.45;3.05;;;;;;;;;;6212760;23;20013;-63
2023/07/12 02:33:09;;;;;;;8.05;3.00;;;;;;;;;;6213271;23;20292;-63
2023/07/12 02:35:35;;;;;;;6.75;2.70;;;;;;;;;;6212076;23;20013;-63
2023/07/12 02:38:01;;;;;;;9.93;2.88;;;;;;;;;;6213074;23;20024;-63
2023/07/12 02:40:28;;;;;;;8.00;2.95;;;;;;;;;;6212740;23;20123;-63
2023/07/12 02:42:54;;;;;;;6.20;2.50;;;;;;;;;;6212353;23;20024;-63
2023/07/12 02:45:21;;;;;;;10.25;3.10;;;;;;;;;;6212922;23;20020;-63
2023/07/12 02:47:47;;;;;;;10.82;3.25;;;;;;;;;;6212687;23;20016;-63
2023/07/12 02:50:13;;;;;;;8.80;3.00;;;;;;;;;;6212548;23;20012;-63
2023/07/12 02:52:39;;;;;;;7.50;3.13;;;;;;;;;;6212925;23;20371;-63
2023/07/12 02:55:05;;;;;;;6.82;2.85;;;;;;;;;;6212944;23;20043;-63
2023/07/12 02:57:32;;;;;;;7.75;3.00;;;;;;;;;;6212379;23;20771;-63
2023/07/12 02:59:58;;;;;;;8.73;2.80;;;;;;;;;;6213115;23;20016;-63
2023/07/12 03:02:24;;;;;;;10.60;3.20;;;;;;;;;;6212657;23;20323;-63
2023/07/12 03:04:51;;;;;;;9.43;3.40;;;;;;;;;;6185481;23;20015;-63
2023/07/12 03:07:17;;;;;;;11.15;3.70;;;;;;;;;;6212559;23;20110;-63
2023/07/12 03:09:43;;;;;;;10.55;3.25;;;;;;;;;;6212896;23;20016;-63
2023/07/12 03:12:09;;;;;;;9.93;3.83;;;;;;;;;;6212469;23;20012;-63
2023/07/12 03:14:36;;;;;;;10.73;3.75;;;;;;;;;;6212924;23;20092;-63
2023/07/12 03:17:02;;;;;;;9.77;3.28;;;;;;;;;;6212940;23;20023;-63
2023/07/12 03:19:28;;;;;;;15.50;3.95;;;;;;;;;;6212165;23;20060;-63
2023/07/12 03:21:54;;;;;;;8.73;3.30;;;;;;;;;;6212598;23;20655;-63
2023/07/12 03:24:20;;;;;;;8.43;3.40;;;;;;;;;;6212445;23;20020;-63
2023/07/12 03:26:47;;;;;;;9.68;3.30;;;;;;;;;;6211699;23;20017;-63
2023/07/12 03:29:13;;;;;;;8.73;3.05;;;;;;;;;;6212797;23;20015;-63
2023/07/12 03:31:39;;;;;;;6.57;3.20;;;;;;;;;;6212627;23;20063;-63
2023/07/12 03:34:05;;;;;;;11.18;3.10;;;;;;;;;;6184970;23;20024;-63
2023/07/12 03:36:31;;;;;;;6.65;3.53;;;;;;;;;;6212040;23;20020;-63
2023/07/12 03:38:58;;;;;;;7.15;3.90;;;;;;;;;;6212733;23;20064;-63
2023/07/12 03:41:24;;;;;;;11.98;3.85;;;;;;;;;;6211987;23;20047;-63
2023/07/12 03:43:50;;;;;;;10.02;3.67;;;;;;;;;;6212613;23;20039;-63
2023/07/12 03:46:17;;;;;;;10.95;4.13;;;;;;;;;;6212473;23;20012;-63
2023/07/12 03:48:43;;;;;;;10.77;3.95;;;;;;;;;;6212029;23;20011;-63
2023/07/12 03:51:11;;;;;;;8.45;3.42;;;;;;;;;;6185509;23;20018;-63
2023/07/12 03:53:37;;;;;;;9.05;3.92;;;;;;;;;;6212741;23;20440;-63
2023/07/12 03:56:03;;;;;;;7.72;3.72;;;;;;;;;;6212168;23;20091;-63
2023/07/12 03:58:31;;;;;;;13.15;4.43;;;;;;;;;;6212587;23;20013;-63
2023/07/12 04:00:57;;;;;;;11.52;4.05;;;;;;;;;;6212613;23;20067;-63
2023/07/12 04:03:23;;;;;;;9.77;3.83;;;;;;;;;;6212259;23;20062;-63
2023/07/12 04:05:51;;;;;;;10.98;3.53;;;;;;;;;;6212219;23;20013;-63
2023/07/12 04:08:17;;;;;;;11.75;3.90;;;;;;;;;;6212585;23;20074;-63
2023/07/12 04:10:43;;;;;;;12.02;4.22;;;;;;;;;;6212519;23;20008;-63
2023/07/12 04:13:09;;;;;;;8.70;3.80;;;;;;;;;;6211926;23;20324;-63
2023/07/12 04:15:36;;;;;;;9.57;3.63;;;;;;;;;;6212536;23;20151;-63
2023/07/12 04:18:03;;;;;;;9.05;3.58;;;;;;;;;;6212632;23;20021;-63
2023/07/12 04:20:30;;;;;;;8.80;4.03;;;;;;;;;;6185013;23;20024;-63
2023/07/12 04:22:56;;;;;;;12.77;4.20;;;;;;;;;;6212142;23;20016;-63
2023/07/12 04:25:22;;;;;;;10.40;4.55;;;;;;;;;;6212179;23;20020;-63
2023/07/12 04:27:48;;;;;;;13.10;4.25;;;;;;;;;;6211826;23;20424;-63
2023/07/12 04:30:15;;;;;;;11.30;3.90;;;;;;;;;;6212431;23;20576;-63
2023/07/12 04:32:41;;;;;;;13.13;4.35;;;;;;;;;;6213290;23;20013;-63
2023/07/12 04:35:08;;;;;;;10.15;3.88;;;;;;;;;;6213494;23;20064;-63
2023/07/12 04:37:34;;;;;;;11.82;4.35;;;;;;;;;;6213941;23;20367;-63
2023/07/12 04:40:00;;;;;;;11.60;4.13;;;;;;;;;;6214609;23;20067;-63
2023/07/12 04:42:26;;;;;;;15.00;4.35;;;;;;;;;;6213796;23;20013;-63
2023/07/12 04:44:52;;;;;;;9.98;4.53;;;;;;;;;;6214571;23;20017;-63
2023/07/12 04:47:18;;;;;;;9.95;4.15;;;;;;;;;;6214538;23;20063;-63
2023/07/12 04:49:45;;;;;;;11.82;4.38;;;;;;;;;;6214246;23;20008;-63
2023/07/12 04:52:14;;;;;;;11.77;4.50;;;;;;;;;;6214466;23;20012;-63
2023/07/12 04:54:41;;;;;;;9.13;4.30;;;;;;;;;;6214635;23;20419;-63
2023/07/12 04:57:07;;;;;;;15.65;4.70;;;;;;;;;;6214041;23;20424;-63
2023/07/12 04:59:33;;;;;;;11.93;4.60;;;;;;;;;;6214166;23;20017;-63
2023/07/12 05:01:59;;;;;;;11.75;4.82;;;;;;;;;;6214409;23;20016;-63
2023/07/12 05:04:25;;;;;;;11.82;4.57;;;;;;;;;;6213803;23;20012;-63
2023/07/12 05:06:52;;;;;;;10.98;4.20;;;;;;;;;;6214077;23;20102;-63
2023/07/12 05:09:18;;;;;;;10.73;4.20;;;;;;;;;;6214153;23;20009;-63
2023/07/12 05:11:44;;;;;;;12.15;5.00;;;;;;;;;;6211880;23;20013;-63
2023/07/12 05:14:10;;;;;;;16.00;4.40;;;;;;;;;;6213786;23;20015;-63
2023/07/12 05:16:37;;;;;;;12.63;4.50;;;;;;;;;;6213801;23;20012;-63
2023/07/12 05:19:03;;;;;;;12.25;4.88;;;;;;;;;;6213156;23;20016;-63
2023/07/12 05:21:29;;;;;;;11.95;4.60;;;;;;;;;;6213574;23;20020;-63
2023/07/12 05:23:55;;;;;;;10.65;4.88;;;;;;;;;;6213653;23;20035;-63
2023/07/12 05:26:21;;;;;;;12.15;5.20;;;;;;;;;;6213043;23;20012;-63
2023/07/12 05:28:48;;;;;;;8.48;4.47;;;;;;;;;;6213921;23;20027;-63
2023/07/12 05:31:14;;;;;;;8.43;4.68;;;;;;;;;;6213641;23;20020;-63
2023/07/12 05:33:42;;;;;;;11.73;5.15;;;;;;;;;;6213383;23;20015;-63
2023/07/12 05:36:08;;;;;;;14.38;4.80;;;;;;;;;;6213073;23;20048;-63
2023/07/12 05:38:35;;;;;;;10.10;4.78;;;;;;;;;;6213648;23;20471;-63
2023/07/12 05:41:01;;;;;;;8.65;4.82;;;;;;;;;;6213003;23;20021;-63
2023/07/12 05:43:27;;;;;;;10.40;4.78;;;;;;;;;;6213161;23;20017;-64
2023/07/12 05:45:53;;;;;;;13.60;5.90;;;;;;;;;;6186602;23;20021;-63
2023/07/12 05:48:19;;;;;;;12.40;5.28;;;;;;;;;;6213300;23;20009;-63
2023/07/12 05:50:52;;;;;;;14.00;5.55;;;;;;;;;;6213532;23;20013;-63
2023/07/12 05:53:18;;;;;;;12.73;5.00;;;;;;;;;;6213318;23;20475;-63
2023/07/12 05:55:44;;;;;;;11.23;5.53;;;;;;;;;;6213090;23;20013;-63
2023/07/12 05:58:11;;;;;;;13.73;6.18;;;;;;;;;;6212918;23;20019;-63
2023/07/12 06:00:37;;;;;;;15.15;5.25;;;;;;;;;;6213314;23;20099;-63
2023/07/12 06:03:04;;;;;;;12.73;5.55;;;;;;;;;;6212593;23;20048;-63
2023/07/12 06:05:31;;;;;;;15.77;5.82;;;;;;;;;;6213600;23;20321;-63
2023/07/12 06:07:57;;;;;;;14.32;5.60;;;;;;;;;;6213188;23;20313;-63
2023/07/12 06:10:23;;;;;;;12.68;5.55;;;;;;;;;;6212818;23;20032;-63
2023/07/12 06:12:49;;;;;;;11.60;5.47;;;;;;;;;;6213279;23;20012;-63
2023/07/12 06:15:15;;;;;;;12.40;5.63;;;;;;;;;;6186121;23;20039;-64
2023/07/12 06:17:43;;;;;;;14.38;5.88;;;;;;;;;;6212858;23;20016;-64
2023/07/12 06:20:09;;;;;;;14.45;5.63;;;;;;;;;;6213080;23;20020;-64
2023/07/12 06:22:36;;;;;;;13.52;5.50;;;;;;;;;;6212723;23;20008;-64
2023/07/12 06:25:02;;;;;;;13.85;5.93;;;;;;;;;;6212528;23;20067;-64
2023/07/12 06:27:29;;;;;;;13.18;5.38;;;;;;;;;;6213192;23;20012;-64
2023/07/12 06:29:55;;;;;;;15.25;5.65;;;;;;;;;;6213245;23;20019;-64
2023/07/12 06:32:21;;;;;;;19.65;5.78;;;;;;;;;;6212848;23;20088;-64
2023/07/12 06:34:46;;;;;;;19.40;6.40;;;;;;;;;;6212906;23;20055;-64
2023/07/12 06:37:13;;;;;;;12.48;5.97;;;;;;;;;;6213138;23;20028;-63
2023/07/12 06:39:39;;;;;;;8.77;5.30;;;;;;;;;;6212233;23;20052;-63
2023/07/12 06:42:05;;;;;;;17.33;5.82;;;;;;;;;;6212652;23;20098;-64
2023/07/12 06:44:31;;;;;;;21.05;6.10;;;;;;;;;;6206688;23;20025;-64
2023/07/12 06:46:57;;;;;;;20.55;6.10;;;;;;;;;;6212096;23;20071;-64
2023/07/12 06:49:23;;;;;;;17.23;6.30;;;;;;;;;;6212522;23;20013;-64
2023/07/12 06:51:49;;;;;;;10.77;6.25;;;;;;;;;;6209935;23;20012;-64
2023/07/12 06:54:16;;;;;;;13.63;6.15;;;;;;;;;;6208820;23;20036;-63
2023/07/12 06:56:42;;;;;;;16.27;6.20;;;;;;;;;;6212827;23;20021;-63
2023/07/12 06:59:09;;;;;;;14.15;6.03;;;;;;;;;;6212674;23;20055;-63
2023/07/12 07:01:35;;;;;;;14.55;6.57;;;;;;;;;;6209384;23;20019;-63
2023/07/12 07:04:01;;;;;;;14.63;5.65;;;;;;;;;;6211871;23;20134;-63
2023/07/12 07:06:27;;;;;;;15.73;6.05;;;;;;;;;;6212436;23;20456;-63
2023/07/12 07:08:53;;;;;;;16.08;6.45;;;;;;;;;;6212079;23;20067;-63
2023/07/12 07:11:19;;;;;;;13.98;6.15;;;;;;;;;;6212279;23;20013;-63
2023/07/12 07:13:47;;;;;;;13.18;5.60;;;;;;;;;;6209480;23;20095;-62
2023/07/12 07:16:13;;;;;;;15.63;5.18;;;;;;;;;;6207235;23;20035;-63
2023/07/12 07:18:39;;;;;;;16.40;4.82;;;;;;;;;;6212175;23;20012;-64
2023/07/12 07:21:05;;;;;;;14.20;4.95;;;;;;;;;;6212789;23;20482;-64
2023/07/12 07:23:33;;;;;;;15.45;4.97;;;;;;;;;;6211844;23;20052;-64
2023/07/12 07:26:07;;;;;;;11.77;4.97;;;;;;;;;;6208067;23;20016;-64
2023/07/12 07:28:33;;;;;;;13.43;5.00;;;;;;;;;;6212235;23;20020;-63
2023/07/12 07:31:00;;;;;;;11.02;4.40;;;;;;;;;;6207229;23;20036;-63
2023/07/12 07:33:27;;;;;;;15.05;4.82;;;;;;;;;;6212498;23;20449;-63
2023/07/12 07:35:53;;;;;;;9.60;4.35;;;;;;;;;;6211284;23;20025;-63
2023/07/12 07:38:25;;;;;;;14.48;5.50;;;;;;;;;;6211638;23;20021;-63
2023/07/12 07:40:51;;;;;;;13.52;5.22;;;;;;;;;;6212062;23;20016;-64
2023/07/12 07:43:18;;;;;;;11.52;5.13;;;;;;;;;;6185179;23;20020;-65
2023/07/12 07:45:44;;;;;;;11.70;5.25;;;;;;;;;;6211148;23;20083;-64
2023/07/12 07:48:10;;;;;;;14.52;5.78;;;;;;;;;;6212042;23;20013;-64
2023/07/12 07:50:37;;;;;;;18.83;6.38;;;;;;;;;;6211724;23;20324;-64
2023/07/12 07:53:03;;;;;;;12.27;5.80;;;;;;;;;;6211559;23;20017;-64
2023/07/12 07:55:29;;;;;;;15.00;5.68;;;;;;;;;;6209310;23;20040;-64
2023/07/12 07:57:55;;;;;;;14.75;5.47;;;;;;;;;;6185409;23;20021;-64
2023/07/12 08:00:21;;;;;;;21.08;6.85;;;;;;;;;;6209235;23;20013;-64
2023/07/12 08:02:47;;;;;;;17.90;5.78;;;;;;;;;;6212354;23;20015;-65
2023/07/12 08:05:17;;;;;;;16.35;5.60;;;;;;;;;;6209023;23;20016;-65
2023/07/12 08:07:46;;;;;;;13.85;5.55;;;;;;;;;;6213440;23;20395;-64
2023/07/12 08:10:13;;;;;;;9.50;5.35;;;;;;;;;;6211059;23;20110;-65
2023/07/12 08:12:39;;;;;;;16.17;4.88;;;;;;;;;;6213970;23;20446;-65
2023/07/12 08:15:06;;;;;;;14.77;5.18;;;;;;;;;;6210948;23;20336;-65
2023/07/12 08:17:32;;;;;;;13.02;4.45;;;;;;;;;;6214086;23;20048;-65
2023/07/12 08:19:58;;;;;;;17.17;4.93;;;;;;;;;;6210939;23;20348;-65
2023/07/12 08:22:25;;;;;;;14.77;5.13;;;;;;;;;;6213448;23;20020;-65
2023/07/12 08:24:51;;;;;;;15.73;4.93;;;;;;;;;;6211105;23;20017;-65
2023/07/12 08:27:17;;;;;;;15.15;4.80;;;;;;;;;;6213852;23;20056;-65
2023/07/12 08:29:43;;;;;;;13.38;5.07;;;;;;;;;;6213699;23;20008;-65
2023/07/12 08:32:10;;;;;;;12.75;4.85;;;;;;;;;;6210634;23;20004;-64
2023/07/12 08:34:36;;;;;;;12.88;4.88;;;;;;;;;;6213367;23;20016;-65
2023/07/12 08:37:02;;;;;;;16.20;5.10;;;;;;;;;;6213723;23;20356;-65
2023/07/12 08:39:28;;;;;;;18.20;5.03;;;;;;;;;;6213637;23;20017;-66
2023/07/12 08:41:54;;;;;;;13.05;4.55;;;;;;;;;;6213943;23;20512;-65
2023/07/12 08:44:22;;;;;;;13.23;4.95;;;;;;;;;;6213079;23;20027;-65
2023/07/12 08:46:51;;;;;;;11.07;4.82;;;;;;;;;;6212798;23;20019;-65
2023/07/12 08:49:18;;;;;;;12.00;5.65;;;;;;;;;;6211026;23;20071;-66
2023/07/12 08:51:44;;;;;;;17.52;5.57;;;;;;;;;;6213473;23;20387;-66
2023/07/12 08:54:22;;;;;;;16.70;6.38;;;;;;;;;;6212774;23;20327;-66
2023/07/12 08:56:48;;;;;;;12.57;4.75;;;;;;;;;;6210864;23;20028;-66
2023/07/12 08:59:15;;;;;;;13.45;4.72;;;;;;;;;;6213160;23;20017;-65
2023/07/12 09:01:43;;;;;;;13.50;5.72;;;;;;;;;;6210610;23;20118;-65
2023/07/12 09:04:23;;;;;;;11.43;5.78;;;;;;;;;;6208452;23;20024;-66
2023/07/12 09:06:50;;;;;;;16.25;6.47;;;;;;;;;;6210280;23;20096;-66
2023/07/12 09:09:17;;;;;;;13.27;6.32;;;;;;;;;;6213767;23;20019;-66
2023/07/12 09:11:43;;;;;;;13.02;6.13;;;;;;;;;;6208400;23;20013;-66
2023/07/12 09:14:19;;;;;;;14.15;6.53;;;;;;;;;;6213583;23;20013;-65
2023/07/12 09:16:47;;;;;;;14.88;6.72;;;;;;;;;;6213272;23;20044;-65
2023/07/12 09:19:15;;;;;;;12.52;5.90;;;;;;;;;;6204917;23;20017;-66
2023/07/12 09:21:42;;;;;;;10.80;5.03;;;;;;;;;;6212371;23;20092;-66
2023/07/12 09:24:12;;;;;;;15.10;6.13;;;;;;;;;;6209832;23;20020;-66
2023/07/12 09:26:38;;;;;;;12.23;5.88;;;;;;;;;;6212574;23;20012;-66
2023/07/12 09:29:12;;;;;;;10.93;5.32;;;;;;;;;;6209829;23;20424;-66
2023/07/12 09:31:40;;;;;;;12.65;5.78;;;;;;;;;;6212741;23;20013;-66
2023/07/12 09:34:07;;;;;;;14.65;5.85;;;;;;;;;;6210168;23;20087;-66
2023/07/12 09:36:39;;;;;;;14.82;5.22;;;;;;;;;;6208400;23;20071;-66
2023/07/12 09:39:06;;;;;;;11.70;4.63;;;;;;;;;;6211943;23;20108;-66
2023/07/12 09:41:32;;;;;;;12.07;4.43;;;;;;;;;;6208514;23;20024;-66
2023/07/12 09:43:59;;;;;;;10.35;4.32;;;;;;;;;;6200692;23;20047;-66
2023/07/12 09:46:34;;;;;;;11.50;4.38;;;;;;;;;;6206629;23;20016;-66
2023/07/12 09:49:04;;;;;;;24.35;5.95;;;;;;;;;;6210501;23;20103;-66
2023/07/12 09:51:38;;;;;;;15.45;5.75;;;;;;;;;;6185006;23;20017;-66
2023/07/12 09:54:27;;;;;;;10.25;3.65;;;;;;;;;;6209769;23;20023;-66
2023/07/12 09:57:00;;;;;;;11.00;3.88;;;;;;;;;;6196201;23;20074;-65
2023/07/12 09:59:26;;;;;;;9.68;3.72;;;;;;;;;;6208919;23;20313;-65
2023/07/12 10:01:54;;;;;;;11.32;3.92;;;;;;;;;;6212494;23;20021;-65
2023/07/12 10:04:21;;;;;;;9.93;4.32;;;;;;;;;;6207893;23;20027;-65
2023/07/12 10:06:49;;;;;;;9.48;3.60;;;;;;;;;;6210882;23;20066;-65
2023/07/12 10:09:18;;;;;;;11.65;3.83;;;;;;;;;;6184803;23;20338;-65
2023/07/12 10:11:49;;;;;;;12.15;5.15;;;;;;;;;;6211554;23;20012;-66
2023/07/12 10:14:17;;;;;;;16.83;5.22;;;;;;;;;;6209441;23;20022;-65
2023/07/12 10:16:47;;;;;;;14.48;4.20;;;;;;;;;;6210954;23;20024;-65
2023/07/12 10:19:16;;;;;;;12.88;4.60;;;;;;;;;;6211124;23;20025;-64
2023/07/12 10:21:43;;;;;;;10.60;4.93;;;;;;;;;;6185468;23;20017;-64
2023/07/12 10:24:13;;;;;;;9.10;4.70;;;;;;;;;;6212056;23;20017;-64
2023/07/12 10:26:39;;;;;;;9.70;3.80;;;;;;;;;;6212610;23;20347;-64
2023/07/12 10:29:14;;;;;;;9.43;3.25;;;;;;;;;;6209156;23;20013;-65
2023/07/12 10:31:41;;;;;;;8.68;3.60;;;;;;;;;;6209135;23;20016;-65
2023/07/12 10:34:24;;;;;;;4.68;2.92;;;;;;;;;;6211996;23;20012;-65
2023/07/12 10:36:55;;;;;;;9.20;3.38;;;;;;;;;;6211397;23;20024;-65
2023/07/12 10:39:21;;;;;;;7.30;2.55;;;;;;;;;;6211215;23;20024;-65
2023/07/12 10:41:50;;;;;;;6.18;2.40;;;;;;;;;;6212067;23;20021;-65
2023/07/12 10:44:22;;;;;;;9.20;2.42;;;;;;;;;;6210727;23;20060;-65
2023/07/12 10:46:51;;;;;;;8.85;2.92;;;;;;;;;;6211410;23;20048;-65
2023/07/12 10:49:19;;;;;;;7.32;2.40;;;;;;;;;;6211061;23;20051;-66
2023/07/12 10:52:03;;;;;;;4.50;2.20;;;;;;;;;;6211786;23;20443;-66
2023/07/12 10:54:32;;;;;;;8.52;2.90;;;;;;;;;;6212399;23;20066;-65
2023/07/12 10:57:18;;;;;;;5.30;2.58;;;;;;;;;;6212511;23;20055;-65
2023/07/12 10:59:45;;;;;;;6.28;3.08;;;;;;;;;;6210915;23;20023;-64
2023/07/12 11:02:27;;;;;;;5.82;2.58;;;;;;;;;;6212433;23;20044;-65
2023/07/12 11:04:53;;;;;;;5.47;2.20;;;;;;;;;;6212536;23;20027;-65
2023/07/12 11:07:19;;;;;;;4.75;2.50;;;;;;;;;;6212095;23;20024;-64
2023/07/12 11:09:45;;;;;;;8.15;3.60;;;;;;;;;;6212668;23;20510;-64
2023/07/12 11:12:33;;;;;;;7.85;2.38;;;;;;;;;;6212055;23;20457;-64
2023/07/12 11:15:21;;;;;;;8.07;2.47;;;;;;;;;;6212157;23;20032;-64
2023/07/12 11:17:52;;;;;;;7.90;2.78;;;;;;;;;;6212462;23;20017;-64
2023/07/12 11:20:24;;;;;;;11.20;2.90;;;;;;;;;;6212134;23;20012;-65
2023/07/12 11:22:53;;;;;;;9.07;2.90;;;;;;;;;;6185764;23;20028;-65
2023/07/12 11:25:22;;;;;;;8.93;2.47;;;;;;;;;;6212266;23;20075;-65
2023/07/12 11:27:56;;;;;;;9.43;2.53;;;;;;;;;;6212098;23;20025;-65
2023/07/12 11:30:28;;;;;;;6.45;2.30;;;;;;;;;;6186061;23;20079;-65
2023/07/12 11:32:54;;;;;;;;;;;;;;;;;;6213105;23;20067;-65
2023/07/12 11:35:41;;;;;;;9.35;1.90;;;;;;;;;;6211626;23;20294;-65
2023/07/12 11:38:13;;;;;;;3.75;1.52;;;;;;;;;;6212989;23;20012;-65
2023/07/12 11:40:40;;;;;;;4.60;1.45;;;;;;;;;;6210815;23;20019;-65
2023/07/12 11:43:38;;;;;;;2.85;1.33;;;;;;;;;;6212822;23;20023;-65
2023/07/12 11:46:12;;;;;;;2.60;1.27;;;;;;;;;;6148020;23;20017;-66
2023/07/12 11:48:42;;;;;;;4.63;1.27;;;;;;;;;;6213954;23;20020;-66
2023/07/12 11:51:11;;;;;;;2.80;1.20;;;;;;;;;;6212129;23;20064;-65
2023/07/12 11:53:37;;;;;;;4.80;1.50;;;;;;;;;;6214703;23;20501;-65
2023/07/12 11:56:06;;;;;;;3.58;1.58;;;;;;;;;;6214122;23;20032;-65
2023/07/12 11:58:32;;;;;;;4.95;1.30;;;;;;;;;;6214082;23;20020;-65
2023/07/12 12:01:00;;;;;;;3.70;1.27;;;;;;;;;;6213020;23;20020;-66
2023/07/12 12:03:26;;;;;;;4.82;1.48;;;;;;;;;;6213471;23;20055;-66
2023/07/12 12:05:53;;;;;;;5.80;1.15;;;;;;;;;;6213063;23;20043;-66
2023/07/12 12:08:24;;;;;;;8.85;1.45;;;;;;;;;;6213774;23;20040;-66
2023/07/12 12:10:51;;;;;;;3.70;1.20;;;;;;;;;;6214246;23;20016;-66
2023/07/12 12:13:20;;;;;;;7.10;1.40;;;;;;;;;;6213232;23;20367;-66
2023/07/12 12:15:50;;;;;;;6.05;1.60;;;;;;;;;;6213733;23;20083;-66
2023/07/12 12:18:17;;;;;;;3.97;1.30;;;;;;;;;;6213396;23;20020;-65
2023/07/12 12:20:55;;;;;;;2.78;1.10;;;;;;;;;;6213458;23;20055;-65
2023/07/12 12:23:26;;;;;;;2.72;1.55;;;;;;;;;;6213195;23;20020;-65
2023/07/12 12:25:53;;;;;;;2.85;1.10;;;;;;;;;;6213564;23;20407;-65
2023/07/12 12:28:32;;;;;;;2.97;1.23;;;;;;;;;;6212943;23;20012;-65
2023/07/12 12:31:04;;;;;;;5.65;0.98;;;;;;;;;;6213678;23;20019;-65
2023/07/12 12:33:31;;;;;;;3.08;1.30;;;;;;;;;;6213256;23;20059;-65
2023/07/12 12:36:02;;;;;;;4.13;1.35;;;;;;;;;;6212444;23;20096;-66
2023/07/12 12:38:31;;;;;;;2.40;0.90;;;;;;;;;;6213058;23;20067;-66
2023/07/12 12:40:59;;;;;;;2.42;1.23;;;;;;;;;;6213136;23;20024;-65
2023/07/12 12:43:25;;;;;;;4.03;0.95;;;;;;;;;;6212618;23;20027;-65
2023/07/12 12:45:55;;;;;;;3.30;1.25;;;;;;;;;;6213528;23;20027;-65
2023/07/12 12:48:21;;;;;;;3.78;1.00;;;;;;;;;;6213049;23;20017;-65
2023/07/12 12:50:48;;;;;;;6.53;1.10;;;;;;;;;;6212833;23;20019;-65
2023/07/12 12:53:14;;;;;;;3.45;0.90;;;;;;;;;;6213232;23;20020;-65
2023/07/12 12:55:41;;;;;;;2.05;0.95;;;;;;;;;;6213504;23;20016;-65
2023/07/12 12:58:13;;;;;;;5.35;1.10;;;;;;;;;;6213264;23;20017;-65
2023/07/12 13:00:39;;;;;;;2.78;0.90;;;;;;;;;;6213642;23;20601;-65
2023/07/12 13:03:06;;;;;;;2.78;1.08;;;;;;;;;;6213206;23;20081;-65
2023/07/12 13:05:32;;;;;;;3.80;1.05;;;;;;;;;;6212855;23;20460;-65
2023/07/12 13:08:04;;;;;;;2.70;1.00;;;;;;;;;;6213395;23;20020;-65
2023/07/12 13:10:30;;;;;;;1.50;0.80;;;;;;;;;;6213455;23;20340;-65
2023/07/12 13:12:56;;;;;;;3.78;1.10;;;;;;;;;;6212944;23;20473;-65
2023/07/12 13:15:23;;;;;;;2.45;0.98;;;;;;;;;;6213315;23;20360;-65
2023/07/12 13:17:52;;;;;;;3.63;0.90;;;;;;;;;;6213641;23;20016;-65
2023/07/12 13:20:20;;;;;;;3.30;1.00;;;;;;;;;;6210565;23;20021;-65
2023/07/12 13:22:47;;;;;;;2.40;0.80;;;;;;;;;;6212782;23;20051;-65
2023/07/12 13:25:14;;;;;;;2.00;0.85;;;;;;;;;;6212060;23;20016;-64
2023/07/12 13:27:42;;;;;;;3.42;0.98;;;;;;;;;;6212116;23;20020;-64
2023/07/12 13:30:15;;;;;;;4.28;0.90;;;;;;;;;;6203085;23;20063;-65
2023/07/12 13:32:41;;;;;;;4.50;1.00;;;;;;;;;;6212814;23;20017;-65
2023/07/12 13:35:08;;;;;;;2.15;0.82;;;;;;;;;;6212100;23;20697;-65
2023/07/12 13:37:37;;;;;;;3.25;0.95;;;;;;;;;;6212887;23;20028;-65
2023/07/12 13:40:03;;;;;;;4.78;0.95;;;;;;;;;;6212731;23;20351;-65
2023/07/12 13:42:29;;;;;;;7.47;0.82;;;;;;;;;;6210974;23;20498;-65
2023/07/12 13:44:58;;;;;;;4.13;1.00;;;;;;;;;;6213156;23;20115;-65
2023/07/12 13:47:27;;;;;;;2.55;0.73;;;;;;;;;;6212724;23;20012;-65
2023/07/12 13:49:54;;;;;;;2.10;1.08;;;;;;;;;;6212780;23;20063;-65
2023/07/12 13:52:21;;;;;;;2.05;0.82;;;;;;;;;;6213117;23;20012;-65
2023/07/12 13:54:48;;;;;;;1.95;0.80;;;;;;;;;;6213033;23;20047;-65
2023/07/12 13:57:15;;;;;;;2.60;0.85;;;;;;;;;;6212643;23;20424;-65
2023/07/12 13:59:41;;;;;;;2.75;0.82;;;;;;;;;;6212433;23;20102;-65
2023/07/12 14:02:31;;;;;;;1.85;0.90;;;;;;;;;;6212852;23;20102;-65
2023/07/12 14:04:58;;;;;;;2.88;0.80;;;;;;;;;;6196430;23;20016;-65
2023/07/12 14:07:28;;;;;;;3.22;0.82;;;;;;;;;;6212533;23;20016;-65
2023/07/12 14:09:55;;;;;;;4.35;0.93;;;;;;;;;;6212961;23;20017;-65
2023/07/12 14:12:23;;;;;;;2.00;0.85;;;;;;;;;;6212575;23;20515;-65
2023/07/12 14:14:49;;;;;;;4.57;1.10;;;;;;;;;;6212854;23;20016;-65
2023/07/12 14:17:16;;;;;;;2.65;1.23;;;;;;;;;;6213123;23;20013;-66
2023/07/12 14:19:44;;;;;;;1.90;0.70;;;;;;;;;;6186373;23;20513;-65
2023/07/12 14:22:13;;;;;;;1.88;0.90;;;;;;;;;;6213222;23;20067;-65
2023/07/12 14:24:39;;;;;;;2.00;0.85;;;;;;;;;;6213242;23;20012;-65
2023/07/12 14:27:06;;;;;;;2.42;0.80;;;;;;;;;;6212241;23;20095;-65
2023/07/12 14:29:32;;;;;;;3.20;0.70;;;;;;;;;;6213197;23;20319;-65
2023/07/12 14:31:58;;;;;;;1.85;0.60;;;;;;;;;;6213115;23;20087;-65
2023/07/12 14:34:24;;;;;;;2.50;0.80;;;;;;;;;;6212555;23;20012;-65
2023/07/12 14:36:50;;;;;;;3.63;1.10;;;;;;;;;;6213014;23;20435;-65
2023/07/12 14:39:16;;;;;;;1.80;0.70;;;;;;;;;;6211627;23;20451;-65
2023/07/12 14:41:43;;;;;;;3.92;0.90;;;;;;;;;;6212343;23;20024;-65